createdAt,value
2019-02-23T00:03:20.314Z,99.90
2019-02-23T00:06:00.417Z,99.90
2019-02-23T00:08:40.659Z,99.90
2019-02-23T00:11:19.995Z,99.90
2019-02-23T00:13:59.886Z,99.90
2019-02-23T00:16:40.066Z,99.90
2019-02-23T00:19:24.861Z,99.90
2019-02-23T00:22:01.933Z,99.90
2019-02-23T00:24:41.919Z,99.90
2019-02-23T00:27:21.237Z,99.90
2019-02-23T00:32:59.875Z,99.90
2019-02-23T00:35:39.838Z,99.90
2019-02-23T00:38:19.872Z,99.90
2019-02-23T00:40:59.125Z,99.90
2019-02-23T00:43:38.357Z,99.90
2019-02-23T00:46:18.394Z,99.90
2019-02-23T00:48:59.177Z,99.90
2019-02-23T00:51:38.433Z,99.90
2019-02-23T00:54:18.442Z,99.90
2019-02-23T00:56:57.683Z,99.90
2019-02-23T00:59:37.519Z,99.90
2019-02-23T01:02:17.667Z,99.90
2019-02-23T01:04:56.844Z,99.90
2019-02-23T01:07:36.837Z,99.90
2019-02-23T01:10:19.376Z,99.90
2019-02-23T01:12:58.933Z,99.90
2019-02-23T01:15:39.040Z,99.90
2019-02-23T01:18:19.136Z,99.90
2019-02-23T01:20:59.262Z,99.90
2019-02-23T01:23:39.313Z,99.90
2019-02-23T01:26:19.178Z,99.90
2019-02-23T01:28:59.122Z,99.90
2019-02-23T01:31:39.175Z,99.90
2019-02-23T01:34:19.299Z,99.90
2019-02-23T01:36:59.186Z,99.90
2019-02-23T01:39:38.294Z,99.90
2019-02-23T01:42:17.498Z,99.90
2019-02-23T01:44:57.549Z,99.90
2019-02-23T01:47:37.602Z,99.90
2019-02-23T01:50:17.543Z,99.90
2019-02-23T01:52:56.850Z,99.90
2019-02-23T02:01:48.578Z,99.90
2019-02-23T02:04:28.686Z,99.90
2019-02-23T02:07:09.334Z,99.90
2019-02-23T02:09:48.790Z,99.90
2019-02-23T02:12:29.257Z,99.90
2019-02-23T02:15:08.894Z,99.90
2019-02-23T02:17:48.981Z,99.90
2019-02-23T02:20:28.989Z,99.90
2019-02-23T02:23:09.183Z,99.90
2019-02-23T02:25:48.390Z,99.90
2019-02-23T02:28:28.163Z,99.90
2019-02-23T02:31:07.402Z,99.90
2019-02-23T02:51:28.564Z,99.90
2019-02-23T02:57:06.803Z,99.90
2019-02-23T02:59:46.838Z,99.90
2019-02-23T03:02:25.977Z,99.90
2019-02-23T03:05:05.177Z,99.90
2019-02-23T03:07:44.423Z,99.90
2019-02-23T03:10:24.553Z,99.90
2019-02-23T03:12:51.396Z,99.90
2019-02-23T03:15:37.818Z,99.90
2019-02-23T03:18:24.416Z,99.90
2019-02-23T03:21:10.908Z,99.90
2019-02-23T03:23:57.331Z,99.90
2019-02-23T03:32:17.065Z,99.90
2019-02-23T03:35:03.750Z,99.90
2019-02-23T03:37:50.146Z,99.90
2019-02-23T03:40:30.211Z,99.90
2019-02-23T03:43:09.979Z,99.90
2019-02-23T03:45:50.080Z,99.90
2019-02-23T04:00:40.813Z,99.90
2019-02-23T04:03:20.856Z,99.90
2019-02-23T04:06:00.938Z,99.90
2019-02-23T04:11:53.450Z,99.90
2019-02-23T04:14:33.078Z,99.90
2019-02-23T04:17:12.574Z,99.90
2019-02-23T04:22:50.782Z,99.90
2019-02-23T04:25:30.913Z,99.90
2019-02-23T04:37:22.619Z,99.90
2019-02-23T04:40:02.699Z,99.90
2019-02-23T04:54:53.148Z,99.90
2019-02-23T04:57:33.278Z,99.90
2019-02-23T05:00:13.438Z,99.90
2019-02-23T05:02:53.312Z,99.90
2019-02-23T05:05:33.673Z,99.90
2019-02-23T05:08:13.890Z,99.90
2019-02-23T05:10:53.851Z,99.90
2019-02-23T05:13:33.064Z,99.90
2019-02-23T05:16:13.278Z,99.90
2019-02-23T05:18:53.443Z,99.90
2019-02-23T05:21:32.620Z,99.90
2019-02-23T05:24:12.873Z,99.90
2019-02-23T05:26:53.086Z,99.90
2019-02-23T05:29:33.134Z,99.90
2019-02-23T05:32:13.163Z,99.90
2019-02-23T05:34:53.071Z,99.90
2019-02-23T05:37:32.553Z,99.90
2019-02-23T05:40:12.454Z,99.90
2019-02-23T05:43:00.625Z,99.90
2019-02-23T05:45:34.464Z,99.90
2019-02-23T05:48:18.973Z,99.90
2019-02-23T05:50:58.456Z,99.90
2019-02-23T05:53:38.709Z,99.90
2019-02-23T05:56:18.486Z,99.90
2019-02-23T05:58:58.550Z,99.90
2019-02-23T06:01:38.246Z,99.90
2019-02-23T06:04:18.412Z,99.90
2019-02-23T06:06:58.356Z,99.90
2019-02-23T06:09:38.555Z,99.90
2019-02-23T06:12:18.649Z,99.90
2019-02-23T06:14:58.701Z,99.90
2019-02-23T06:17:38.826Z,99.90
2019-02-23T06:20:19.365Z,99.90
2019-02-23T06:22:58.966Z,99.90
2019-02-23T06:34:50.590Z,99.90
2019-02-23T06:37:30.475Z,99.90
2019-02-23T06:40:10.554Z,99.90
2019-02-23T06:42:50.803Z,99.90
2019-02-23T06:48:29.070Z,99.90
2019-02-23T06:51:09.407Z,99.90
2019-02-23T06:53:48.862Z,99.90
2019-02-23T06:59:41.098Z,99.90
2019-02-23T07:02:21.998Z,99.90
2019-02-23T07:05:01.352Z,99.90
2019-02-23T07:07:41.609Z,99.90
2019-02-23T07:10:21.165Z,99.90
2019-02-23T07:13:01.166Z,99.90
2019-02-23T07:15:41.696Z,99.90
2019-02-23T07:18:21.743Z,99.90
2019-02-23T07:21:01.455Z,99.90
2019-02-23T07:23:41.560Z,99.90
2019-02-23T07:26:21.687Z,99.90
2019-02-23T07:29:01.824Z,99.90
2019-02-23T07:31:41.278Z,99.90
2019-02-23T07:34:21.458Z,99.90
2019-02-23T07:37:01.469Z,99.90
2019-02-23T07:39:28.874Z,99.90
2019-02-23T07:42:08.240Z,99.90
2019-02-23T07:44:48.198Z,99.90
2019-02-23T07:47:28.258Z,99.90
2019-02-23T07:50:08.327Z,99.90
2019-02-23T07:52:48.350Z,99.90
2019-02-23T07:55:28.485Z,99.90
2019-02-23T07:58:08.395Z,99.90
2019-02-23T08:00:47.952Z,99.90
2019-02-23T08:03:27.576Z,99.90
2019-02-23T08:06:07.583Z,99.90
2019-02-23T08:08:47.675Z,99.90
2019-02-23T08:14:28.914Z,99.90
2019-02-23T08:16:55.805Z,99.90
2019-02-23T08:19:42.210Z,99.90
2019-02-23T08:22:09.095Z,99.90
2019-02-23T08:24:35.949Z,99.90
2019-02-23T08:30:09.618Z,99.90
2019-02-23T08:32:56.052Z,99.90
2019-02-23T08:38:29.031Z,99.90
2019-02-23T08:41:08.268Z,99.90
2019-02-23T08:43:48.338Z,99.90
2019-02-23T08:46:28.348Z,99.90
2019-02-23T08:49:08.390Z,99.90
2019-02-23T08:51:47.649Z,99.90
2019-02-23T08:54:27.568Z,99.90
2019-02-23T08:57:07.008Z,99.90
2019-02-23T08:59:47.045Z,99.90
2019-02-23T09:02:27.165Z,99.90
2019-02-23T09:05:07.225Z,99.90
2019-02-23T09:07:49.261Z,99.90
2019-02-23T09:10:29.381Z,99.90
2019-02-23T09:13:08.673Z,99.90
2019-02-23T09:19:11.089Z,99.90
2019-02-23T09:21:51.106Z,99.90
2019-02-23T09:24:17.965Z,99.90
2019-02-23T09:27:04.690Z,99.90
2019-02-23T09:29:51.407Z,99.90
2019-02-23T09:32:38.093Z,99.90
2019-02-23T09:35:24.629Z,99.90
2019-02-23T09:38:11.061Z,98.70
2019-02-23T09:49:24.571Z,72.10
2019-02-23T09:52:10.966Z,58.50
2019-02-23T09:54:57.494Z,67.30
2019-02-23T09:57:44.124Z,62.80
2019-02-23T10:00:30.552Z,62.10
2019-02-23T10:03:17.319Z,55.20
2019-02-23T10:06:03.928Z,51.70
2019-02-23T10:12:06.657Z,66.50
2019-02-23T10:14:53.525Z,44.50
2019-02-23T10:20:27.122Z,70.30
2019-02-23T10:23:21.583Z,43.60
2019-02-23T10:26:02.442Z,41.90
2019-02-23T10:31:35.426Z,77.40
2019-02-23T10:34:21.847Z,36.40
2019-02-23T10:37:08.240Z,35.70
2019-02-23T10:39:54.761Z,35.90
2019-02-23T10:42:34.576Z,32.60
2019-02-23T10:45:14.635Z,35.80
2019-02-23T10:47:54.556Z,33.00
2019-02-23T10:50:34.582Z,34.00
2019-02-23T10:53:13.849Z,31.00
2019-02-23T10:58:52.201Z,30.00
2019-02-23T11:01:32.514Z,39.30
2019-02-23T11:04:12.574Z,29.20
2019-02-23T11:06:52.605Z,30.40
2019-02-23T11:09:35.120Z,30.00
2019-02-23T11:12:15.311Z,30.20
2019-02-23T11:14:55.086Z,28.90
2019-02-23T11:17:34.408Z,30.00
2019-02-23T11:20:14.646Z,31.10
2019-02-23T11:22:54.737Z,28.90
2019-02-23T11:25:34.733Z,30.50
2019-02-23T11:28:14.834Z,30.50
2019-02-23T11:30:54.910Z,29.60
2019-02-23T11:36:14.449Z,53.90
2019-02-23T11:38:54.530Z,28.80
2019-02-23T11:41:34.897Z,29.20
2019-02-23T11:44:14.646Z,30.90
2019-02-23T11:47:01.020Z,53.60
2019-02-23T11:49:35.889Z,47.80
2019-02-23T11:52:15.949Z,33.00
2019-02-23T11:54:56.361Z,33.20
2019-02-23T11:57:36.245Z,34.00
2019-02-23T12:00:16.453Z,32.60
2019-02-23T12:02:55.805Z,32.60
2019-02-23T12:05:35.403Z,33.10
2019-02-23T12:08:15.222Z,32.30
2019-02-23T12:10:55.309Z,32.60
2019-02-23T12:13:34.556Z,32.20
2019-02-23T12:16:14.640Z,30.60
2019-02-23T12:18:54.937Z,30.40
2019-02-23T12:21:34.273Z,30.20
2019-02-23T12:24:14.275Z,32.10
2019-02-23T12:26:54.413Z,31.60
2019-02-23T12:29:34.065Z,31.80
2019-02-23T12:32:14.181Z,31.20
2019-02-23T12:34:54.217Z,32.00
2019-02-23T12:37:34.159Z,30.90
2019-02-23T12:40:14.158Z,30.60
2019-02-23T12:42:54.084Z,30.50
2019-02-23T12:45:20.844Z,29.10
2019-02-23T12:48:07.249Z,29.50
2019-02-23T12:50:53.747Z,29.60
2019-02-23T12:53:40.265Z,29.00
2019-02-23T12:56:26.654Z,28.80
2019-02-23T12:59:13.310Z,28.80
2019-02-23T13:01:59.829Z,29.00
2019-02-23T13:04:26.702Z,28.90
2019-02-23T13:06:53.561Z,28.30
2019-02-23T13:09:42.697Z,28.20
2019-02-23T13:15:35.298Z,61.40
2019-02-23T13:18:41.473Z,27.10
2019-02-23T13:24:34.313Z,27.10
2019-02-23T13:27:40.337Z,27.10
2019-02-23T13:30:46.370Z,26.50
2019-02-23T13:36:38.990Z,32.20
2019-02-23T13:39:47.550Z,45.90
2019-02-23T13:42:53.625Z,45.00
2019-02-23T13:48:46.320Z,18.40
2019-02-23T13:51:52.567Z,17.40
2019-02-23T13:54:58.855Z,18.80
2019-02-23T13:58:04.941Z,19.90
2019-02-23T14:01:11.213Z,19.90
2019-02-23T14:04:17.764Z,20.30
2019-02-23T14:07:08.038Z,20.20
2019-02-23T14:10:14.084Z,21.00
2019-02-23T14:13:20.113Z,21.70
2019-02-23T14:19:12.742Z,20.90
2019-02-23T14:31:02.249Z,42.50
2019-02-23T14:34:08.825Z,21.00
2019-02-23T14:37:15.424Z,19.00
2019-02-23T14:40:21.592Z,21.00
2019-02-23T14:43:01.662Z,28.90
2019-02-23T14:45:41.799Z,26.20
2019-02-23T14:48:22.223Z,25.20
2019-02-23T14:51:08.517Z,19.20
2019-02-23T14:54:14.661Z,20.10
2019-02-23T14:57:20.719Z,20.10
2019-02-23T15:00:26.751Z,20.20
2019-02-23T15:03:32.804Z,20.10
2019-02-23T15:06:23.055Z,20.00
2019-02-23T15:09:24.550Z,22.30
2019-02-23T15:12:30.622Z,22.80
2019-02-23T15:15:24.031Z,22.70
2019-02-23T15:18:30.096Z,22.50
2019-02-23T15:21:36.149Z,23.60
2019-02-23T15:24:42.173Z,22.80
2019-02-23T15:27:41.438Z,23.50
2019-02-23T15:30:47.497Z,23.70
2019-02-23T15:33:53.547Z,24.20
2019-02-23T15:36:43.125Z,23.30
2019-02-23T15:39:39.537Z,23.90
2019-02-23T15:42:29.485Z,24.40
2019-02-23T15:45:35.587Z,24.70
2019-02-23T15:48:42.024Z,24.70
2019-02-23T15:51:28.505Z,23.70
2019-02-23T15:54:14.909Z,23.90
2019-02-23T15:57:01.602Z,24.70
2019-02-23T15:59:48.037Z,26.20
2019-02-23T16:02:15.157Z,25.70
2019-02-23T16:05:01.702Z,25.60
2019-02-23T16:07:48.101Z,25.30
2019-02-23T16:10:34.592Z,27.00
2019-02-23T16:13:21.040Z,26.20
2019-02-23T16:15:48.258Z,27.60
2019-02-23T16:18:35.025Z,26.50
2019-02-23T16:21:21.449Z,26.80
2019-02-23T16:23:48.199Z,26.80
2019-02-23T16:26:34.886Z,25.90
2019-02-23T16:29:21.683Z,25.90
2019-02-23T16:31:48.658Z,25.90
2019-02-23T16:34:35.894Z,26.00
2019-02-23T16:37:22.304Z,25.80
2019-02-23T16:40:08.835Z,26.00
2019-02-23T16:42:35.598Z,26.60
2019-02-23T16:45:22.117Z,25.50
2019-02-23T16:48:08.885Z,24.70
2019-02-23T16:50:35.679Z,24.00
2019-02-23T16:53:22.682Z,24.50
2019-02-23T16:55:51.085Z,24.70
2019-02-23T16:58:18.594Z,24.70
2019-02-23T17:00:45.753Z,25.00
2019-02-23T17:03:32.146Z,24.90
2019-02-23T17:05:59.253Z,25.20
2019-02-23T17:08:45.748Z,25.10
2019-02-23T17:11:13.300Z,25.50
2019-02-23T17:13:59.805Z,25.50
2019-02-23T17:16:46.326Z,25.80
2019-02-23T17:19:32.827Z,27.70
2019-02-23T17:22:19.244Z,29.30
2019-02-23T17:25:05.734Z,30.60
2019-02-23T17:27:52.160Z,30.30
2019-02-23T17:30:38.564Z,30.00
2019-02-23T17:33:27.909Z,29.30
2019-02-23T17:36:13.644Z,32.40
2019-02-23T17:39:00.025Z,32.00
2019-02-23T17:41:46.821Z,30.90
2019-02-23T17:44:26.565Z,32.80
2019-02-23T17:47:06.562Z,35.20
2019-02-23T17:49:46.161Z,34.80
2019-02-23T17:52:26.075Z,43.00
2019-02-23T17:55:06.245Z,39.80
2019-02-23T17:57:46.237Z,45.40
2019-02-23T18:00:25.805Z,39.00
2019-02-23T18:06:17.734Z,41.90
2019-02-23T18:08:58.096Z,43.20
2019-02-23T18:11:37.766Z,45.40
2019-02-23T18:14:17.727Z,53.50
2019-02-23T18:16:58.018Z,54.00
2019-02-23T18:19:38.150Z,62.70
2019-02-23T18:22:18.592Z,71.60
2019-02-23T18:24:58.324Z,77.60
2019-02-23T18:27:38.525Z,79.80
2019-02-23T18:30:17.885Z,76.00
2019-02-23T18:32:58.353Z,90.60
2019-02-23T18:35:38.154Z,95.10
2019-02-23T18:38:19.403Z,84.70
2019-02-23T18:40:59.204Z,85.40
2019-02-23T18:43:39.565Z,90.40
2019-02-23T18:46:19.381Z,89.50
2019-02-23T18:48:59.357Z,95.70
2019-02-23T18:51:38.755Z,94.90
2019-02-23T18:54:17.913Z,93.70
2019-02-23T18:56:58.073Z,97.90
2019-02-23T18:59:38.136Z,95.60
2019-02-23T19:02:18.576Z,97.30
2019-02-23T19:04:45.369Z,99.60
2019-02-23T19:07:31.773Z,97.20
2019-02-23T19:10:18.197Z,91.10
2019-02-23T19:13:04.921Z,69.00
2019-02-23T19:15:32.115Z,76.20
2019-02-23T19:18:19.017Z,75.80
2019-02-23T19:26:38.857Z,78.40
2019-02-23T19:29:25.410Z,89.20
2019-02-23T19:32:12.329Z,92.10
2019-02-23T19:34:39.157Z,95.70
2019-02-23T19:37:25.594Z,99.90
2019-02-23T19:40:12.421Z,99.00
2019-02-23T19:42:51.906Z,97.90
2019-02-23T19:45:32.001Z,99.90
2019-02-23T19:48:11.974Z,99.60
2019-02-23T19:50:52.214Z,99.50
2019-02-23T19:53:32.339Z,99.60
2019-02-23T19:56:12.145Z,99.90
2019-02-23T19:58:52.367Z,99.90
2019-02-23T20:01:32.456Z,99.90
2019-02-23T20:04:12.829Z,99.90
2019-02-23T20:06:52.539Z,99.90
2019-02-23T20:09:32.998Z,99.90
2019-02-23T20:12:12.777Z,99.90
2019-02-23T20:14:53.083Z,99.90
2019-02-23T20:17:33.135Z,99.90
2019-02-23T20:20:13.478Z,99.90
2019-02-23T20:22:53.458Z,99.90
2019-02-23T20:25:33.804Z,99.90
2019-02-23T20:28:13.558Z,99.90
2019-02-23T20:30:53.719Z,99.90
2019-02-23T20:33:33.790Z,99.90
2019-02-23T20:36:13.574Z,99.90
2019-02-23T20:38:52.790Z,99.90
2019-02-23T20:41:32.018Z,99.90
2019-02-23T20:44:12.175Z,99.90
2019-02-23T20:46:52.281Z,99.90
2019-02-23T20:49:32.435Z,99.90
2019-02-23T20:52:12.502Z,99.90
2019-02-23T20:54:52.773Z,99.90
2019-02-23T20:57:33.063Z,99.90
2019-02-23T21:00:12.975Z,99.90
2019-02-23T21:02:52.996Z,99.90
2019-02-23T21:05:33.099Z,99.90
2019-02-23T21:08:13.263Z,99.90
2019-02-23T21:10:53.346Z,99.90
2019-02-23T21:13:32.569Z,99.90
2019-02-23T21:16:11.841Z,99.90
2019-02-23T21:18:52.349Z,99.90
2019-02-23T21:21:32.288Z,99.90
2019-02-23T21:24:12.530Z,99.90
2019-02-23T21:26:52.553Z,99.90
2019-02-23T21:29:32.559Z,99.90
2019-02-23T21:32:12.506Z,99.90
2019-02-23T21:34:53.143Z,99.90
2019-02-23T21:37:32.939Z,99.90
2019-02-23T21:40:12.916Z,99.90
2019-02-23T21:42:52.788Z,99.90
2019-02-23T21:45:32.027Z,99.90
2019-02-23T21:48:12.032Z,99.90
2019-02-23T21:50:51.445Z,99.90
2019-02-23T21:53:31.659Z,99.90
2019-02-23T21:56:11.954Z,99.90
2019-02-23T21:58:51.711Z,99.90
2019-02-23T22:01:32.038Z,99.90
2019-02-23T22:04:11.871Z,99.90
2019-02-23T22:06:52.048Z,99.90
2019-02-23T22:09:32.244Z,99.90
2019-02-23T22:12:12.147Z,99.90
2019-02-23T22:14:52.107Z,99.90
2019-02-23T22:17:32.055Z,99.90
2019-02-23T22:20:11.908Z,99.90
2019-02-23T22:22:51.248Z,99.90
2019-02-23T22:25:31.633Z,99.90
2019-02-23T22:28:11.286Z,99.90
2019-02-23T22:30:51.317Z,99.90
2019-02-23T22:33:31.630Z,99.90
2019-02-23T22:36:11.688Z,99.90
2019-02-23T22:38:50.943Z,99.90
2019-02-23T22:41:30.167Z,99.90
2019-02-23T22:44:10.047Z,99.90
2019-02-23T22:46:50.348Z,99.90
2019-02-23T22:49:30.201Z,99.90
2019-02-23T22:52:10.281Z,99.90
2019-02-23T22:54:50.327Z,99.90
2019-02-23T22:57:30.586Z,99.90
2019-02-23T23:00:10.362Z,99.90
2019-02-23T23:02:49.833Z,99.90
2019-02-23T23:05:29.702Z,99.90
2019-02-23T23:08:09.854Z,99.90
2019-02-23T23:10:49.965Z,99.90
2019-02-23T23:13:29.894Z,99.90
2019-02-23T23:16:10.088Z,99.90
2019-02-23T23:18:50.501Z,99.90
2019-02-23T23:21:30.497Z,99.90
2019-02-23T23:24:10.293Z,99.90
2019-02-23T23:26:49.525Z,99.90
2019-02-23T23:29:29.792Z,99.90
2019-02-23T23:32:09.884Z,99.90
2019-02-23T23:34:49.604Z,99.90
2019-02-23T23:37:28.813Z,99.90
2019-02-23T23:40:08.768Z,99.90
2019-02-23T23:42:48.684Z,99.90
2019-02-23T23:45:27.984Z,99.90
2019-02-23T23:48:08.126Z,99.90
2019-02-23T23:50:34.900Z,99.90
2019-02-23T23:53:21.295Z,99.90
2019-02-23T23:55:48.164Z,99.90
2019-02-23T23:58:34.897Z,99.90
